Terminal Aerodrome Forecast
Issued by NWS

Current Version | Previous Version | Text Only | Print | Product List | Glossary On
Versions: 1 2 3 4 5 6 7 8 9 10 11 12 13 14
623
FTUS42 KMLB 221900 AAA
TAFISM
TAF AMD
KISM 221900Z 2219/2318 13010KT P6SM VCSH SCT040 BKN060 BKN250
     FM222300 10006KT P6SM SCT025 SCT040 BKN250
     FM231400 15008KT P6SM SCT025 OVC050=

USA.gov is the U.S. government's official web portal to all federal, state and local government web resources and services.